sensor_id;sensor_type;location;lat;lon;timestamp;temperature;humidity
16532;DHT22;8378;57.698;11.958;2022-07-23T00:02:01;27.60;40.60
16532;DHT22;8378;57.698;11.958;2022-07-23T00:04:26;27.60;40.60
16532;DHT22;8378;57.698;11.958;2022-07-23T00:06:52;27.60;41.30
16532;DHT22;8378;57.698;11.958;2022-07-23T00:09:18;27.60;40.70
16532;DHT22;8378;57.698;11.958;2022-07-23T00:11:43;27.60;40.70
16532;DHT22;8378;57.698;11.958;2022-07-23T00:14:09;27.60;40.70
16532;DHT22;8378;57.698;11.958;2022-07-23T00:16:34;27.60;40.60
16532;DHT22;8378;57.698;11.958;2022-07-23T00:19:00;27.60;40.70
16532;DHT22;8378;57.698;11.958;2022-07-23T00:21:27;27.60;40.70
16532;DHT22;8378;57.698;11.958;2022-07-23T00:23:53;27.60;40.70
16532;DHT22;8378;57.698;11.958;2022-07-23T00:26:20;27.60;40.70
16532;DHT22;8378;57.698;11.958;2022-07-23T00:28:45;27.60;40.70
16532;DHT22;8378;57.698;11.958;2022-07-23T00:31:11;27.60;40.70
16532;DHT22;8378;57.698;11.958;2022-07-23T00:33:36;27.60;40.70
16532;DHT22;8378;57.698;11.958;2022-07-23T00:36:02;27.60;40.70
16532;DHT22;8378;57.698;11.958;2022-07-23T00:38:28;27.60;40.80
16532;DHT22;8378;57.698;11.958;2022-07-23T00:40:53;27.60;40.70
16532;DHT22;8378;57.698;11.958;2022-07-23T00:43:23;27.60;40.70
16532;DHT22;8378;57.698;11.958;2022-07-23T00:45:49;27.60;40.70
16532;DHT22;8378;57.698;11.958;2022-07-23T00:48:15;27.60;40.70
16532;DHT22;8378;57.698;11.958;2022-07-23T00:50:41;27.60;40.80
16532;DHT22;8378;57.698;11.958;2022-07-23T00:53:07;27.60;40.80
16532;DHT22;8378;57.698;11.958;2022-07-23T00:55:34;27.60;40.80
16532;DHT22;8378;57.698;11.958;2022-07-23T00:57:59;27.60;40.80
16532;DHT22;8378;57.698;11.958;2022-07-23T01:00:26;27.60;40.80
16532;DHT22;8378;57.698;11.958;2022-07-23T01:02:52;27.60;40.80
16532;DHT22;8378;57.698;11.958;2022-07-23T01:05:18;27.60;40.80
16532;DHT22;8378;57.698;11.958;2022-07-23T01:07:48;27.60;40.80
16532;DHT22;8378;57.698;11.958;2022-07-23T01:10:13;27.60;40.80
16532;DHT22;8378;57.698;11.958;2022-07-23T01:13:09;27.60;40.80
16532;DHT22;8378;57.698;11.958;2022-07-23T01:15:37;27.50;40.70
16532;DHT22;8378;57.698;11.958;2022-07-23T01:18:04;27.50;40.70
16532;DHT22;8378;57.698;11.958;2022-07-23T01:20:30;27.50;40.70
16532;DHT22;8378;57.698;11.958;2022-07-23T01:22:57;27.50;40.70
16532;DHT22;8378;57.698;11.958;2022-07-23T01:25:23;27.50;40.70
16532;DHT22;8378;57.698;11.958;2022-07-23T01:27:50;27.50;40.70
16532;DHT22;8378;57.698;11.958;2022-07-23T01:30:16;27.50;40.70
16532;DHT22;8378;57.698;11.958;2022-07-23T01:32:42;27.50;40.70
16532;DHT22;8378;57.698;11.958;2022-07-23T01:35:08;27.50;40.70
16532;DHT22;8378;57.698;11.958;2022-07-23T01:37:34;27.50;41.30
16532;DHT22;8378;57.698;11.958;2022-07-23T01:40:00;27.50;40.70
16532;DHT22;8378;57.698;11.958;2022-07-23T01:42:25;27.50;40.70
16532;DHT22;8378;57.698;11.958;2022-07-23T01:44:51;27.50;40.70
16532;DHT22;8378;57.698;11.958;2022-07-23T01:47:17;27.50;40.70
16532;DHT22;8378;57.698;11.958;2022-07-23T01:49:42;27.50;40.70
16532;DHT22;8378;57.698;11.958;2022-07-23T01:52:08;27.50;40.70
16532;DHT22;8378;57.698;11.958;2022-07-23T01:54:38;27.50;40.70
16532;DHT22;8378;57.698;11.958;2022-07-23T01:57:04;27.50;40.70
16532;DHT22;8378;57.698;11.958;2022-07-23T01:59:31;27.50;40.70
16532;DHT22;8378;57.698;11.958;2022-07-23T02:01:56;27.50;40.70
16532;DHT22;8378;57.698;11.958;2022-07-23T02:04:23;27.50;40.70
16532;DHT22;8378;57.698;11.958;2022-07-23T02:06:50;27.50;40.70
16532;DHT22;8378;57.698;11.958;2022-07-23T02:09:16;27.40;40.60
16532;DHT22;8378;57.698;11.958;2022-07-23T02:11:42;27.50;40.60
16532;DHT22;8378;57.698;11.958;2022-07-23T02:14:08;27.50;40.60
16532;DHT22;8378;57.698;11.958;2022-07-23T02:16:34;27.40;40.60
16532;DHT22;8378;57.698;11.958;2022-07-23T02:19:00;27.40;41.20
16532;DHT22;8378;57.698;11.958;2022-07-23T02:21:25;27.40;40.60
16532;DHT22;8378;57.698;11.958;2022-07-23T02:23:51;27.40;40.60
16532;DHT22;8378;57.698;11.958;2022-07-23T02:26:17;27.40;40.60
16532;DHT22;8378;57.698;11.958;2022-07-23T02:28:42;27.40;40.60
16532;DHT22;8378;57.698;11.958;2022-07-23T02:31:08;27.40;40.60
16532;DHT22;8378;57.698;11.958;2022-07-23T02:33:33;27.40;40.60
16532;DHT22;8378;57.698;11.958;2022-07-23T02:35:59;27.40;40.60
16532;DHT22;8378;57.698;11.958;2022-07-23T02:38:25;27.40;40.60
16532;DHT22;8378;57.698;11.958;2022-07-23T02:40:51;27.40;40.60
16532;DHT22;8378;57.698;11.958;2022-07-23T02:43:17;27.40;40.50
16532;DHT22;8378;57.698;11.958;2022-07-23T02:45:42;27.40;40.60
16532;DHT22;8378;57.698;11.958;2022-07-23T02:48:08;27.40;40.60
16532;DHT22;8378;57.698;11.958;2022-07-23T02:50:34;27.40;40.50
16532;DHT22;8378;57.698;11.958;2022-07-23T02:52:59;27.40;40.50
16532;DHT22;8378;57.698;11.958;2022-07-23T02:55:25;27.40;40.50
16532;DHT22;8378;57.698;11.958;2022-07-23T02:57:51;27.40;40.50
16532;DHT22;8378;57.698;11.958;2022-07-23T03:00:16;27.30;40.40
16532;DHT22;8378;57.698;11.958;2022-07-23T03:02:42;27.40;40.60
16532;DHT22;8378;57.698;11.958;2022-07-23T03:05:08;27.30;40.40
16532;DHT22;8378;57.698;11.958;2022-07-23T03:07:33;27.30;40.40
16532;DHT22;8378;57.698;11.958;2022-07-23T03:09:59;27.30;40.40
16532;DHT22;8378;57.698;11.958;2022-07-23T03:12:25;27.30;40.40
16532;DHT22;8378;57.698;11.958;2022-07-23T03:14:51;27.30;40.40
16532;DHT22;8378;57.698;11.958;2022-07-23T03:17:16;27.30;40.40
16532;DHT22;8378;57.698;11.958;2022-07-23T03:19:42;27.30;40.40
16532;DHT22;8378;57.698;11.958;2022-07-23T03:22:08;27.30;40.40
16532;DHT22;8378;57.698;11.958;2022-07-23T03:24:33;27.30;40.40
16532;DHT22;8378;57.698;11.958;2022-07-23T03:27:17;27.30;40.40
16532;DHT22;8378;57.698;11.958;2022-07-23T03:29:43;27.30;40.40
16532;DHT22;8378;57.698;11.958;2022-07-23T03:32:09;27.30;40.40
16532;DHT22;8378;57.698;11.958;2022-07-23T03:34:35;27.30;40.50
16532;DHT22;8378;57.698;11.958;2022-07-23T03:37:01;27.30;40.40
16532;DHT22;8378;57.698;11.958;2022-07-23T03:39:27;27.30;40.40
16532;DHT22;8378;57.698;11.958;2022-07-23T03:41:52;27.30;40.40
16532;DHT22;8378;57.698;11.958;2022-07-23T03:44:18;27.30;40.40
16532;DHT22;8378;57.698;11.958;2022-07-23T03:46:44;27.20;40.40
16532;DHT22;8378;57.698;11.958;2022-07-23T03:49:09;27.20;40.40
16532;DHT22;8378;57.698;11.958;2022-07-23T03:51:35;27.30;40.50
16532;DHT22;8378;57.698;11.958;2022-07-23T03:54:00;27.20;41.00
16532;DHT22;8378;57.698;11.958;2022-07-23T03:56:26;27.20;40.40
16532;DHT22;8378;57.698;11.958;2022-07-23T03:58:52;27.20;40.40
16532;DHT22;8378;57.698;11.958;2022-07-23T04:01:17;27.20;40.40
16532;DHT22;8378;57.698;11.958;2022-07-23T04:03:43;27.20;40.40
16532;DHT22;8378;57.698;11.958;2022-07-23T04:06:08;27.20;40.40
16532;DHT22;8378;57.698;11.958;2022-07-23T04:08:34;27.20;40.40
16532;DHT22;8378;57.698;11.958;2022-07-23T04:11:00;27.20;40.40
16532;DHT22;8378;57.698;11.958;2022-07-23T04:13:25;27.20;40.40
16532;DHT22;8378;57.698;11.958;2022-07-23T04:15:51;27.20;40.40
16532;DHT22;8378;57.698;11.958;2022-07-23T04:18:17;27.20;40.40
16532;DHT22;8378;57.698;11.958;2022-07-23T04:20:44;27.20;40.40
16532;DHT22;8378;57.698;11.958;2022-07-23T04:23:09;27.20;40.40
16532;DHT22;8378;57.698;11.958;2022-07-23T04:25:35;27.20;40.40
16532;DHT22;8378;57.698;11.958;2022-07-23T04:28:01;27.20;40.40
16532;DHT22;8378;57.698;11.958;2022-07-23T04:30:27;27.20;40.40
16532;DHT22;8378;57.698;11.958;2022-07-23T04:32:52;27.20;40.40
16532;DHT22;8378;57.698;11.958;2022-07-23T04:35:18;27.20;40.40
16532;DHT22;8378;57.698;11.958;2022-07-23T04:37:44;27.20;40.40
16532;DHT22;8378;57.698;11.958;2022-07-23T04:40:10;27.20;40.40
16532;DHT22;8378;57.698;11.958;2022-07-23T04:42:36;27.20;40.40
16532;DHT22;8378;57.698;11.958;2022-07-23T04:45:02;27.20;40.40
16532;DHT22;8378;57.698;11.958;2022-07-23T04:47:29;27.10;40.30
16532;DHT22;8378;57.698;11.958;2022-07-23T04:49:55;27.10;40.40
16532;DHT22;8378;57.698;11.958;2022-07-23T04:52:20;27.10;41.10
16532;DHT22;8378;57.698;11.958;2022-07-23T04:54:46;27.10;40.30
16532;DHT22;8378;57.698;11.958;2022-07-23T04:57:11;27.10;40.30
16532;DHT22;8378;57.698;11.958;2022-07-23T04:59:37;27.10;40.30
16532;DHT22;8378;57.698;11.958;2022-07-23T05:02:03;27.10;40.30
16532;DHT22;8378;57.698;11.958;2022-07-23T05:04:28;27.20;40.40
16532;DHT22;8378;57.698;11.958;2022-07-23T05:06:54;27.10;40.30
16532;DHT22;8378;57.698;11.958;2022-07-23T05:09:19;27.10;40.30
16532;DHT22;8378;57.698;11.958;2022-07-23T05:11:45;27.20;40.30
16532;DHT22;8378;57.698;11.958;2022-07-23T05:14:10;27.20;40.30
16532;DHT22;8378;57.698;11.958;2022-07-23T05:16:38;27.10;40.30
16532;DHT22;8378;57.698;11.958;2022-07-23T05:19:03;27.20;40.30
16532;DHT22;8378;57.698;11.958;2022-07-23T05:21:29;27.10;40.20
16532;DHT22;8378;57.698;11.958;2022-07-23T05:23:55;27.10;40.20
16532;DHT22;8378;57.698;11.958;2022-07-23T05:26:21;27.10;40.20
16532;DHT22;8378;57.698;11.958;2022-07-23T05:28:46;27.10;40.20
16532;DHT22;8378;57.698;11.958;2022-07-23T05:31:12;27.10;40.20
16532;DHT22;8378;57.698;11.958;2022-07-23T05:33:37;27.10;40.30
16532;DHT22;8378;57.698;11.958;2022-07-23T05:36:04;27.10;40.20
16532;DHT22;8378;57.698;11.958;2022-07-23T05:38:31;27.10;40.20
16532;DHT22;8378;57.698;11.958;2022-07-23T05:40:57;27.10;40.20
16532;DHT22;8378;57.698;11.958;2022-07-23T05:43:23;27.10;40.20
16532;DHT22;8378;57.698;11.958;2022-07-23T05:45:48;27.10;40.20
16532;DHT22;8378;57.698;11.958;2022-07-23T05:48:14;27.10;40.20
16532;DHT22;8378;57.698;11.958;2022-07-23T05:50:39;27.10;40.20
16532;DHT22;8378;57.698;11.958;2022-07-23T05:53:05;27.10;40.20
16532;DHT22;8378;57.698;11.958;2022-07-23T05:55:30;27.10;40.10
16532;DHT22;8378;57.698;11.958;2022-07-23T05:57:57;27.10;40.10
16532;DHT22;8378;57.698;11.958;2022-07-23T06:00:23;27.10;40.10
16532;DHT22;8378;57.698;11.958;2022-07-23T06:02:49;27.10;40.10
16532;DHT22;8378;57.698;11.958;2022-07-23T06:05:15;27.10;40.10
16532;DHT22;8378;57.698;11.958;2022-07-23T06:07:40;27.10;40.10
16532;DHT22;8378;57.698;11.958;2022-07-23T06:10:07;27.10;40.10
16532;DHT22;8378;57.698;11.958;2022-07-23T06:12:33;27.10;40.10
16532;DHT22;8378;57.698;11.958;2022-07-23T06:14:59;27.10;40.70
16532;DHT22;8378;57.698;11.958;2022-07-23T06:17:24;27.10;40.00
16532;DHT22;8378;57.698;11.958;2022-07-23T06:19:50;27.10;40.00
16532;DHT22;8378;57.698;11.958;2022-07-23T06:22:16;27.10;40.60
16532;DHT22;8378;57.698;11.958;2022-07-23T06:24:42;27.10;40.00
16532;DHT22;8378;57.698;11.958;2022-07-23T06:27:07;27.10;40.00
16532;DHT22;8378;57.698;11.958;2022-07-23T06:29:33;27.10;40.10
16532;DHT22;8378;57.698;11.958;2022-07-23T06:31:58;27.10;40.00
16532;DHT22;8378;57.698;11.958;2022-07-23T06:34:24;27.10;40.10
16532;DHT22;8378;57.698;11.958;2022-07-23T06:36:50;27.10;40.10
16532;DHT22;8378;57.698;11.958;2022-07-23T06:39:15;27.10;40.10
16532;DHT22;8378;57.698;11.958;2022-07-23T06:41:41;27.10;40.10
16532;DHT22;8378;57.698;11.958;2022-07-23T06:44:07;27.10;40.10
16532;DHT22;8378;57.698;11.958;2022-07-23T06:46:33;27.10;40.10
16532;DHT22;8378;57.698;11.958;2022-07-23T06:48:59;27.10;40.10
16532;DHT22;8378;57.698;11.958;2022-07-23T06:51:24;27.10;40.10
16532;DHT22;8378;57.698;11.958;2022-07-23T06:53:50;27.10;40.10
16532;DHT22;8378;57.698;11.958;2022-07-23T06:56:16;27.10;40.10
16532;DHT22;8378;57.698;11.958;2022-07-23T06:58:41;27.10;40.10
16532;DHT22;8378;57.698;11.958;2022-07-23T07:01:07;27.10;40.10
16532;DHT22;8378;57.698;11.958;2022-07-23T07:03:32;27.10;40.10
16532;DHT22;8378;57.698;11.958;2022-07-23T07:05:58;27.10;40.10
16532;DHT22;8378;57.698;11.958;2022-07-23T07:08:24;27.10;40.10
16532;DHT22;8378;57.698;11.958;2022-07-23T07:10:49;27.10;40.00
16532;DHT22;8378;57.698;11.958;2022-07-23T07:13:15;27.10;40.10
16532;DHT22;8378;57.698;11.958;2022-07-23T07:15:41;27.10;40.10
16532;DHT22;8378;57.698;11.958;2022-07-23T07:18:06;27.10;40.00
16532;DHT22;8378;57.698;11.958;2022-07-23T07:20:32;27.10;40.00
16532;DHT22;8378;57.698;11.958;2022-07-23T07:22:57;27.10;40.00
16532;DHT22;8378;57.698;11.958;2022-07-23T07:25:23;27.10;40.10
16532;DHT22;8378;57.698;11.958;2022-07-23T07:27:49;27.00;40.00
16532;DHT22;8378;57.698;11.958;2022-07-23T07:30:14;27.00;40.10
16532;DHT22;8378;57.698;11.958;2022-07-23T07:32:41;27.00;40.00
16532;DHT22;8378;57.698;11.958;2022-07-23T07:35:07;27.00;40.00
16532;DHT22;8378;57.698;11.958;2022-07-23T07:37:33;27.00;40.00
16532;DHT22;8378;57.698;11.958;2022-07-23T07:39:58;27.00;40.10
16532;DHT22;8378;57.698;11.958;2022-07-23T07:42:24;27.00;40.10
16532;DHT22;8378;57.698;11.958;2022-07-23T07:44:50;27.00;40.10
16532;DHT22;8378;57.698;11.958;2022-07-23T07:47:15;27.00;40.10
16532;DHT22;8378;57.698;11.958;2022-07-23T07:49:44;27.00;40.10
16532;DHT22;8378;57.698;11.958;2022-07-23T07:52:10;27.00;40.10
16532;DHT22;8378;57.698;11.958;2022-07-23T07:54:36;27.00;40.10
16532;DHT22;8378;57.698;11.958;2022-07-23T07:57:01;27.00;40.70
16532;DHT22;8378;57.698;11.958;2022-07-23T07:59:27;27.00;40.70
16532;DHT22;8378;57.698;11.958;2022-07-23T08:01:53;27.00;40.10
16532;DHT22;8378;57.698;11.958;2022-07-23T08:04:19;27.00;40.10
16532;DHT22;8378;57.698;11.958;2022-07-23T08:06:45;27.00;40.10
16532;DHT22;8378;57.698;11.958;2022-07-23T08:09:10;27.00;40.10
16532;DHT22;8378;57.698;11.958;2022-07-23T08:11:36;27.00;40.10
16532;DHT22;8378;57.698;11.958;2022-07-23T08:14:02;27.00;40.10
16532;DHT22;8378;57.698;11.958;2022-07-23T08:16:28;27.00;40.10
16532;DHT22;8378;57.698;11.958;2022-07-23T08:18:53;27.00;40.00
16532;DHT22;8378;57.698;11.958;2022-07-23T08:21:19;27.00;40.00
16532;DHT22;8378;57.698;11.958;2022-07-23T08:23:45;27.00;40.00
16532;DHT22;8378;57.698;11.958;2022-07-23T08:26:10;27.00;40.00
16532;DHT22;8378;57.698;11.958;2022-07-23T08:28:36;27.00;40.00
16532;DHT22;8378;57.698;11.958;2022-07-23T08:31:01;27.00;40.10
16532;DHT22;8378;57.698;11.958;2022-07-23T08:33:27;27.00;40.10
16532;DHT22;8378;57.698;11.958;2022-07-23T08:35:53;27.00;40.10
16532;DHT22;8378;57.698;11.958;2022-07-23T08:38:20;26.90;40.10
16532;DHT22;8378;57.698;11.958;2022-07-23T08:40:52;27.00;40.10
16532;DHT22;8378;57.698;11.958;2022-07-23T08:43:23;27.00;40.20
16532;DHT22;8378;57.698;11.958;2022-07-23T08:45:52;27.00;40.10
16532;DHT22;8378;57.698;11.958;2022-07-23T08:48:21;27.00;40.20
16532;DHT22;8378;57.698;11.958;2022-07-23T08:51:00;27.00;40.10
16532;DHT22;8378;57.698;11.958;2022-07-23T08:53:27;27.00;40.10
16532;DHT22;8378;57.698;11.958;2022-07-23T08:55:55;27.00;40.10
16532;DHT22;8378;57.698;11.958;2022-07-23T08:58:22;27.00;40.10
16532;DHT22;8378;57.698;11.958;2022-07-23T09:00:49;27.00;40.10
16532;DHT22;8378;57.698;11.958;2022-07-23T09:03:26;27.00;40.10
16532;DHT22;8378;57.698;11.958;2022-07-23T09:05:53;27.00;40.10
16532;DHT22;8378;57.698;11.958;2022-07-23T09:08:44;27.00;40.10
16532;DHT22;8378;57.698;11.958;2022-07-23T09:11:15;27.00;40.10
16532;DHT22;8378;57.698;11.958;2022-07-23T09:13:52;27.00;40.10
16532;DHT22;8378;57.698;11.958;2022-07-23T09:16:25;27.00;40.10
16532;DHT22;8378;57.698;11.958;2022-07-23T09:18:53;27.00;40.10
16532;DHT22;8378;57.698;11.958;2022-07-23T09:21:28;27.00;40.20
16532;DHT22;8378;57.698;11.958;2022-07-23T09:24:02;27.00;40.10
16532;DHT22;8378;57.698;11.958;2022-07-23T09:26:45;27.00;40.20
16532;DHT22;8378;57.698;11.958;2022-07-23T09:31:50;27.00;40.20
16532;DHT22;8378;57.698;11.958;2022-07-23T09:34:26;27.00;40.20
16532;DHT22;8378;57.698;11.958;2022-07-23T09:36:57;27.00;40.20
16532;DHT22;8378;57.698;11.958;2022-07-23T09:39:29;27.00;40.20
16532;DHT22;8378;57.698;11.958;2022-07-23T09:41:56;27.00;40.20
16532;DHT22;8378;57.698;11.958;2022-07-23T09:44:22;27.00;40.20
16532;DHT22;8378;57.698;11.958;2022-07-23T09:46:49;27.00;40.20
16532;DHT22;8378;57.698;11.958;2022-07-23T09:49:20;27.00;40.20
16532;DHT22;8378;57.698;11.958;2022-07-23T09:54:31;27.00;40.20
16532;DHT22;8378;57.698;11.958;2022-07-23T09:57:03;27.00;40.20
16532;DHT22;8378;57.698;11.958;2022-07-23T09:59:32;27.00;40.20
16532;DHT22;8378;57.698;11.958;2022-07-23T10:01:59;27.00;40.20
16532;DHT22;8378;57.698;11.958;2022-07-23T10:04:27;27.00;40.20
16532;DHT22;8378;57.698;11.958;2022-07-23T10:06:55;27.00;40.20
16532;DHT22;8378;57.698;11.958;2022-07-23T10:09:24;27.00;40.20
16532;DHT22;8378;57.698;11.958;2022-07-23T10:11:51;27.00;40.20
16532;DHT22;8378;57.698;11.958;2022-07-23T10:14:18;27.00;40.20
16532;DHT22;8378;57.698;11.958;2022-07-23T10:16:44;27.00;40.10
16532;DHT22;8378;57.698;11.958;2022-07-23T10:19:09;27.00;40.10
16532;DHT22;8378;57.698;11.958;2022-07-23T10:21:46;27.00;40.10
16532;DHT22;8378;57.698;11.958;2022-07-23T10:27:11;27.00;40.20
16532;DHT22;8378;57.698;11.958;2022-07-23T10:29:52;27.00;40.10
16532;DHT22;8378;57.698;11.958;2022-07-23T10:38:27;26.90;40.10
16532;DHT22;8378;57.698;11.958;2022-07-23T10:40:59;27.00;40.20
16532;DHT22;8378;57.698;11.958;2022-07-23T10:43:26;26.90;40.10
16532;DHT22;8378;57.698;11.958;2022-07-23T10:45:52;26.90;40.20
16532;DHT22;8378;57.698;11.958;2022-07-23T10:51:09;27.00;40.30
16532;DHT22;8378;57.698;11.958;2022-07-23T10:53:54;27.00;40.30
16532;DHT22;8378;57.698;11.958;2022-07-23T10:59:20;27.00;40.30
16532;DHT22;8378;57.698;11.958;2022-07-23T11:01:46;27.00;40.30
16532;DHT22;8378;57.698;11.958;2022-07-23T11:04:12;27.00;40.30
16532;DHT22;8378;57.698;11.958;2022-07-23T11:09:29;27.00;40.30
16532;DHT22;8378;57.698;11.958;2022-07-23T11:15:09;27.00;40.30
16532;DHT22;8378;57.698;11.958;2022-07-23T11:22:39;27.00;40.30
16532;DHT22;8378;57.698;11.958;2022-07-23T11:25:06;27.00;40.30
16532;DHT22;8378;57.698;11.958;2022-07-23T11:30:12;27.00;40.90
16532;DHT22;8378;57.698;11.958;2022-07-23T11:33:16;27.00;40.30
16532;DHT22;8378;57.698;11.958;2022-07-23T11:35:49;27.00;40.30
16532;DHT22;8378;57.698;11.958;2022-07-23T11:38:19;27.00;40.30
16532;DHT22;8378;57.698;11.958;2022-07-23T11:40:50;27.00;40.30
16532;DHT22;8378;57.698;11.958;2022-07-23T11:43:17;27.00;40.30
16532;DHT22;8378;57.698;11.958;2022-07-23T11:45:58;27.00;40.30
16532;DHT22;8378;57.698;11.958;2022-07-23T11:48:26;27.00;40.30
16532;DHT22;8378;57.698;11.958;2022-07-23T11:50:53;27.00;40.30
16532;DHT22;8378;57.698;11.958;2022-07-23T11:53:27;27.10;40.30
16532;DHT22;8378;57.698;11.958;2022-07-23T11:55:53;27.10;40.30
16532;DHT22;8378;57.698;11.958;2022-07-23T11:58:20;27.10;40.20
16532;DHT22;8378;57.698;11.958;2022-07-23T12:00:46;27.10;40.20
16532;DHT22;8378;57.698;11.958;2022-07-23T12:03:12;27.10;40.20
16532;DHT22;8378;57.698;11.958;2022-07-23T12:05:38;27.10;40.20
16532;DHT22;8378;57.698;11.958;2022-07-23T12:08:06;27.10;40.20
16532;DHT22;8378;57.698;11.958;2022-07-23T12:10:38;27.10;40.10
16532;DHT22;8378;57.698;11.958;2022-07-23T12:13:05;27.10;40.10
16532;DHT22;8378;57.698;11.958;2022-07-23T12:15:33;27.10;40.20
16532;DHT22;8378;57.698;11.958;2022-07-23T12:18:02;27.10;40.20
16532;DHT22;8378;57.698;11.958;2022-07-23T12:20:31;27.10;40.20
16532;DHT22;8378;57.698;11.958;2022-07-23T12:23:04;27.10;40.20
16532;DHT22;8378;57.698;11.958;2022-07-23T12:25:34;27.10;40.20
16532;DHT22;8378;57.698;11.958;2022-07-23T12:30:43;27.10;40.20
16532;DHT22;8378;57.698;11.958;2022-07-23T12:33:13;27.10;40.20
16532;DHT22;8378;57.698;11.958;2022-07-23T12:35:42;27.10;40.20
16532;DHT22;8378;57.698;11.958;2022-07-23T12:38:13;27.10;40.20
16532;DHT22;8378;57.698;11.958;2022-07-23T12:40:47;27.10;40.80
16532;DHT22;8378;57.698;11.958;2022-07-23T12:43:33;27.10;40.20
16532;DHT22;8378;57.698;11.958;2022-07-23T12:46:08;27.10;40.30
16532;DHT22;8378;57.698;11.958;2022-07-23T12:48:54;27.10;40.20
16532;DHT22;8378;57.698;11.958;2022-07-23T12:51:27;27.10;40.20
16532;DHT22;8378;57.698;11.958;2022-07-23T12:53:56;27.10;40.20
16532;DHT22;8378;57.698;11.958;2022-07-23T12:56:31;27.10;40.20
16532;DHT22;8378;57.698;11.958;2022-07-23T12:59:08;27.10;40.20
16532;DHT22;8378;57.698;11.958;2022-07-23T13:01:41;27.10;40.20
16532;DHT22;8378;57.698;11.958;2022-07-23T13:04:12;27.10;40.20
16532;DHT22;8378;57.698;11.958;2022-07-23T13:06:41;27.10;40.30
16532;DHT22;8378;57.698;11.958;2022-07-23T13:09:17;27.10;40.30
16532;DHT22;8378;57.698;11.958;2022-07-23T13:11:45;27.10;40.30
16532;DHT22;8378;57.698;11.958;2022-07-23T13:14:11;27.20;40.30
16532;DHT22;8378;57.698;11.958;2022-07-23T13:16:38;27.10;40.30
16532;DHT22;8378;57.698;11.958;2022-07-23T13:19:04;27.10;40.30
16532;DHT22;8378;57.698;11.958;2022-07-23T13:21:30;27.10;40.20
16532;DHT22;8378;57.698;11.958;2022-07-23T13:23:56;27.10;40.20
16532;DHT22;8378;57.698;11.958;2022-07-23T13:26:22;27.20;40.40
16532;DHT22;8378;57.698;11.958;2022-07-23T13:28:47;27.10;40.30
16532;DHT22;8378;57.698;11.958;2022-07-23T13:31:14;27.10;40.30
16532;DHT22;8378;57.698;11.958;2022-07-23T13:33:39;27.10;40.30
16532;DHT22;8378;57.698;11.958;2022-07-23T13:36:05;27.10;40.30
16532;DHT22;8378;57.698;11.958;2022-07-23T13:38:31;27.10;40.30
16532;DHT22;8378;57.698;11.958;2022-07-23T13:40:57;27.10;40.30
16532;DHT22;8378;57.698;11.958;2022-07-23T13:43:24;27.10;40.30
16532;DHT22;8378;57.698;11.958;2022-07-23T13:45:51;27.10;40.30
16532;DHT22;8378;57.698;11.958;2022-07-23T13:48:18;27.10;40.30
16532;DHT22;8378;57.698;11.958;2022-07-23T13:50:44;27.10;40.30
16532;DHT22;8378;57.698;11.958;2022-07-23T13:53:12;27.10;40.30
16532;DHT22;8378;57.698;11.958;2022-07-23T13:55:40;27.10;40.30
16532;DHT22;8378;57.698;11.958;2022-07-23T13:58:06;27.10;40.20
16532;DHT22;8378;57.698;11.958;2022-07-23T14:00:34;27.10;40.10
16532;DHT22;8378;57.698;11.958;2022-07-23T14:03:00;27.10;40.10
16532;DHT22;8378;57.698;11.958;2022-07-23T14:05:26;27.10;40.20
16532;DHT22;8378;57.698;11.958;2022-07-23T14:07:52;27.20;40.20
16532;DHT22;8378;57.698;11.958;2022-07-23T14:10:19;27.20;40.20
16532;DHT22;8378;57.698;11.958;2022-07-23T14:12:46;27.20;40.10
16532;DHT22;8378;57.698;11.958;2022-07-23T14:15:13;27.20;40.20
16532;DHT22;8378;57.698;11.958;2022-07-23T14:17:40;27.20;40.20
16532;DHT22;8378;57.698;11.958;2022-07-23T14:20:08;27.20;40.10
16532;DHT22;8378;57.698;11.958;2022-07-23T14:22:34;27.20;40.10
16532;DHT22;8378;57.698;11.958;2022-07-23T14:25:00;27.20;40.10
16532;DHT22;8378;57.698;11.958;2022-07-23T14:27:27;27.20;40.10
16532;DHT22;8378;57.698;11.958;2022-07-23T14:29:54;27.20;40.10
16532;DHT22;8378;57.698;11.958;2022-07-23T14:32:20;27.20;40.10
16532;DHT22;8378;57.698;11.958;2022-07-23T14:34:46;27.10;40.00
16532;DHT22;8378;57.698;11.958;2022-07-23T14:37:12;27.20;40.00
16532;DHT22;8378;57.698;11.958;2022-07-23T14:39:39;27.20;40.10
16532;DHT22;8378;57.698;11.958;2022-07-23T14:42:05;27.20;40.10
16532;DHT22;8378;57.698;11.958;2022-07-23T14:44:31;27.20;40.10
16532;DHT22;8378;57.698;11.958;2022-07-23T14:46:57;27.10;40.00
16532;DHT22;8378;57.698;11.958;2022-07-23T14:49:23;27.10;40.00
16532;DHT22;8378;57.698;11.958;2022-07-23T14:51:48;27.10;40.00
16532;DHT22;8378;57.698;11.958;2022-07-23T14:54:14;27.10;40.00
16532;DHT22;8378;57.698;11.958;2022-07-23T14:56:43;27.10;40.10
16532;DHT22;8378;57.698;11.958;2022-07-23T14:59:09;27.10;40.10
16532;DHT22;8378;57.698;11.958;2022-07-23T15:01:35;27.10;40.10
16532;DHT22;8378;57.698;11.958;2022-07-23T15:04:02;27.20;40.10
16532;DHT22;8378;57.698;11.958;2022-07-23T15:06:27;27.20;40.20
16532;DHT22;8378;57.698;11.958;2022-07-23T15:08:53;27.20;40.20
16532;DHT22;8378;57.698;11.958;2022-07-23T15:11:19;27.20;40.10
16532;DHT22;8378;57.698;11.958;2022-07-23T15:13:45;27.20;40.00
16532;DHT22;8378;57.698;11.958;2022-07-23T15:16:10;27.20;40.00
16532;DHT22;8378;57.698;11.958;2022-07-23T15:18:36;27.20;40.00
16532;DHT22;8378;57.698;11.958;2022-07-23T15:21:02;27.20;40.00
16532;DHT22;8378;57.698;11.958;2022-07-23T15:23:28;27.20;40.00
16532;DHT22;8378;57.698;11.958;2022-07-23T15:25:55;27.20;40.10
16532;DHT22;8378;57.698;11.958;2022-07-23T15:28:21;27.20;40.10
16532;DHT22;8378;57.698;11.958;2022-07-23T15:30:48;27.20;40.00
16532;DHT22;8378;57.698;11.958;2022-07-23T15:33:14;27.20;40.10
16532;DHT22;8378;57.698;11.958;2022-07-23T15:35:40;27.20;40.00
16532;DHT22;8378;57.698;11.958;2022-07-23T15:38:06;27.20;40.00
16532;DHT22;8378;57.698;11.958;2022-07-23T15:40:31;27.20;39.90
16532;DHT22;8378;57.698;11.958;2022-07-23T15:42:57;27.20;39.90
16532;DHT22;8378;57.698;11.958;2022-07-23T15:45:23;27.20;39.80
16532;DHT22;8378;57.698;11.958;2022-07-23T15:47:48;27.20;39.80
16532;DHT22;8378;57.698;11.958;2022-07-23T15:50:15;27.20;39.80
16532;DHT22;8378;57.698;11.958;2022-07-23T15:52:41;27.20;39.80
16532;DHT22;8378;57.698;11.958;2022-07-23T15:55:08;27.20;40.40
16532;DHT22;8378;57.698;11.958;2022-07-23T15:57:34;27.20;39.80
16532;DHT22;8378;57.698;11.958;2022-07-23T15:59:59;27.20;39.80
16532;DHT22;8378;57.698;11.958;2022-07-23T16:02:25;27.20;40.40
16532;DHT22;8378;57.698;11.958;2022-07-23T16:04:51;27.20;39.70
16532;DHT22;8378;57.698;11.958;2022-07-23T16:07:18;27.20;39.80